sensor_id;sensor_type;location;lat;lon;timestamp;P1;durP1;ratioP1;P2;durP2;ratioP2
35444;SDS011;21562;49.476;6.086;2024-01-30T00:01:15;21.30;;;10.45;;
35444;SDS011;21562;49.476;6.086;2024-01-30T00:03:41;21.48;;;10.25;;
35444;SDS011;21562;49.476;6.086;2024-01-30T00:06:07;19.35;;;10.65;;
35444;SDS011;21562;49.476;6.086;2024-01-30T00:08:33;20.42;;;10.20;;
35444;SDS011;21562;49.476;6.086;2024-01-30T00:10:59;20.48;;;9.77;;
35444;SDS011;21562;49.476;6.086;2024-01-30T00:13:25;22.55;;;10.18;;
35444;SDS011;21562;49.476;6.086;2024-01-30T00:15:51;20.13;;;9.45;;
35444;SDS011;21562;49.476;6.086;2024-01-30T00:18:17;16.95;;;9.40;;
35444;SDS011;21562;49.476;6.086;2024-01-30T00:20:43;27.75;;;12.48;;
35444;SDS011;21562;49.476;6.086;2024-01-30T00:23:09;24.08;;;11.18;;
35444;SDS011;21562;49.476;6.086;2024-01-30T00:25:35;18.88;;;10.27;;
35444;SDS011;21562;49.476;6.086;2024-01-30T00:28:00;26.40;;;11.40;;
35444;SDS011;21562;49.476;6.086;2024-01-30T00:30:26;25.65;;;11.98;;
35444;SDS011;21562;49.476;6.086;2024-01-30T00:32:52;19.90;;;10.02;;
35444;SDS011;21562;49.476;6.086;2024-01-30T00:35:18;22.30;;;11.35;;
35444;SDS011;21562;49.476;6.086;2024-01-30T00:37:44;24.33;;;12.60;;
35444;SDS011;21562;49.476;6.086;2024-01-30T00:40:09;27.20;;;12.27;;
35444;SDS011;21562;49.476;6.086;2024-01-30T00:42:40;19.40;;;10.73;;
35444;SDS011;21562;49.476;6.086;2024-01-30T00:45:13;22.90;;;11.75;;
35444;SDS011;21562;49.476;6.086;2024-01-30T00:47:40;18.15;;;9.70;;
35444;SDS011;21562;49.476;6.086;2024-01-30T00:50:06;17.92;;;9.25;;
35444;SDS011;21562;49.476;6.086;2024-01-30T00:52:32;19.77;;;9.55;;
35444;SDS011;21562;49.476;6.086;2024-01-30T00:54:58;20.85;;;9.98;;
35444;SDS011;21562;49.476;6.086;2024-01-30T00:57:27;21.88;;;10.35;;
35444;SDS011;21562;49.476;6.086;2024-01-30T00:59:53;20.67;;;10.07;;
35444;SDS011;21562;49.476;6.086;2024-01-30T01:02:19;20.00;;;9.48;;
35444;SDS011;21562;49.476;6.086;2024-01-30T01:04:45;20.77;;;9.80;;
35444;SDS011;21562;49.476;6.086;2024-01-30T01:07:11;21.73;;;10.98;;
35444;SDS011;21562;49.476;6.086;2024-01-30T01:09:37;25.48;;;10.02;;
35444;SDS011;21562;49.476;6.086;2024-01-30T01:12:03;20.88;;;10.65;;
35444;SDS011;21562;49.476;6.086;2024-01-30T01:14:29;16.48;;;8.85;;
35444;SDS011;21562;49.476;6.086;2024-01-30T01:16:55;17.45;;;9.68;;
35444;SDS011;21562;49.476;6.086;2024-01-30T01:19:21;17.40;;;10.18;;
35444;SDS011;21562;49.476;6.086;2024-01-30T01:21:46;21.15;;;9.68;;
35444;SDS011;21562;49.476;6.086;2024-01-30T01:24:12;19.80;;;9.73;;
35444;SDS011;21562;49.476;6.086;2024-01-30T01:26:38;17.80;;;8.77;;
35444;SDS011;21562;49.476;6.086;2024-01-30T01:29:04;19.15;;;9.18;;
35444;SDS011;21562;49.476;6.086;2024-01-30T01:31:35;18.92;;;8.63;;
35444;SDS011;21562;49.476;6.086;2024-01-30T01:34:05;19.15;;;10.02;;
35444;SDS011;21562;49.476;6.086;2024-01-30T01:36:31;15.63;;;9.35;;
35444;SDS011;21562;49.476;6.086;2024-01-30T01:38:56;19.05;;;9.30;;
35444;SDS011;21562;49.476;6.086;2024-01-30T01:41:22;15.40;;;8.70;;
35444;SDS011;21562;49.476;6.086;2024-01-30T01:43:48;17.70;;;8.15;;
35444;SDS011;21562;49.476;6.086;2024-01-30T01:46:13;15.90;;;9.20;;
35444;SDS011;21562;49.476;6.086;2024-01-30T01:48:40;16.85;;;8.07;;
35444;SDS011;21562;49.476;6.086;2024-01-30T01:51:08;19.30;;;9.15;;
35444;SDS011;21562;49.476;6.086;2024-01-30T01:53:34;19.60;;;8.20;;
35444;SDS011;21562;49.476;6.086;2024-01-30T01:56:00;14.23;;;8.23;;
35444;SDS011;21562;49.476;6.086;2024-01-30T01:58:26;15.38;;;7.43;;
35444;SDS011;21562;49.476;6.086;2024-01-30T02:00:53;17.10;;;9.55;;
35444;SDS011;21562;49.476;6.086;2024-01-30T02:03:21;19.88;;;8.40;;
35444;SDS011;21562;49.476;6.086;2024-01-30T02:05:46;13.93;;;7.90;;
35444;SDS011;21562;49.476;6.086;2024-01-30T02:08:12;13.10;;;7.70;;
35444;SDS011;21562;49.476;6.086;2024-01-30T02:10:38;12.98;;;7.30;;
35444;SDS011;21562;49.476;6.086;2024-01-30T02:13:03;14.60;;;7.65;;
35444;SDS011;21562;49.476;6.086;2024-01-30T02:15:29;14.98;;;7.22;;
35444;SDS011;21562;49.476;6.086;2024-01-30T02:17:55;16.98;;;7.45;;
35444;SDS011;21562;49.476;6.086;2024-01-30T02:20:21;12.45;;;7.13;;
35444;SDS011;21562;49.476;6.086;2024-01-30T02:22:49;13.57;;;7.18;;
35444;SDS011;21562;49.476;6.086;2024-01-30T02:25:19;15.25;;;8.73;;
35444;SDS011;21562;49.476;6.086;2024-01-30T02:27:45;21.02;;;10.20;;
35444;SDS011;21562;49.476;6.086;2024-01-30T02:30:10;15.77;;;8.50;;
35444;SDS011;21562;49.476;6.086;2024-01-30T02:32:36;13.80;;;7.40;;
35444;SDS011;21562;49.476;6.086;2024-01-30T02:35:02;12.85;;;7.05;;
35444;SDS011;21562;49.476;6.086;2024-01-30T02:37:28;17.13;;;7.13;;
35444;SDS011;21562;49.476;6.086;2024-01-30T02:39:54;15.75;;;6.80;;
35444;SDS011;21562;49.476;6.086;2024-01-30T02:42:19;12.57;;;7.18;;
35444;SDS011;21562;49.476;6.086;2024-01-30T02:44:45;18.10;;;9.93;;
35444;SDS011;21562;49.476;6.086;2024-01-30T02:47:10;21.52;;;10.45;;
35444;SDS011;21562;49.476;6.086;2024-01-30T02:49:36;15.38;;;7.57;;
35444;SDS011;21562;49.476;6.086;2024-01-30T02:52:02;20.25;;;7.55;;
35444;SDS011;21562;49.476;6.086;2024-01-30T02:54:28;14.82;;;6.97;;
35444;SDS011;21562;49.476;6.086;2024-01-30T02:56:55;11.98;;;7.22;;
35444;SDS011;21562;49.476;6.086;2024-01-30T02:59:21;15.85;;;6.78;;
35444;SDS011;21562;49.476;6.086;2024-01-30T03:01:47;18.00;;;7.30;;
35444;SDS011;21562;49.476;6.086;2024-01-30T03:04:12;20.83;;;7.38;;
35444;SDS011;21562;49.476;6.086;2024-01-30T03:06:38;13.45;;;6.95;;
35444;SDS011;21562;49.476;6.086;2024-01-30T03:09:09;14.43;;;7.43;;
35444;SDS011;21562;49.476;6.086;2024-01-30T03:11:35;12.90;;;6.65;;
35444;SDS011;21562;49.476;6.086;2024-01-30T03:14:01;13.30;;;6.75;;
35444;SDS011;21562;49.476;6.086;2024-01-30T03:16:27;13.05;;;7.07;;
35444;SDS011;21562;49.476;6.086;2024-01-30T03:18:52;14.32;;;6.78;;
35444;SDS011;21562;49.476;6.086;2024-01-30T03:21:18;12.00;;;6.45;;
35444;SDS011;21562;49.476;6.086;2024-01-30T03:23:43;11.23;;;6.53;;
35444;SDS011;21562;49.476;6.086;2024-01-30T03:26:09;11.75;;;6.65;;
35444;SDS011;21562;49.476;6.086;2024-01-30T03:28:36;13.45;;;5.63;;
35444;SDS011;21562;49.476;6.086;2024-01-30T03:31:01;12.32;;;5.07;;
35444;SDS011;21562;49.476;6.086;2024-01-30T03:33:27;9.63;;;5.60;;
35444;SDS011;21562;49.476;6.086;2024-01-30T03:35:53;10.95;;;6.00;;
35444;SDS011;21562;49.476;6.086;2024-01-30T03:38:19;14.90;;;6.80;;
35444;SDS011;21562;49.476;6.086;2024-01-30T03:40:44;13.55;;;6.30;;
35444;SDS011;21562;49.476;6.086;2024-01-30T03:43:10;12.65;;;6.55;;
35444;SDS011;21562;49.476;6.086;2024-01-30T03:45:36;11.05;;;6.43;;
35444;SDS011;21562;49.476;6.086;2024-01-30T03:48:02;14.00;;;6.10;;
35444;SDS011;21562;49.476;6.086;2024-01-30T03:50:27;12.35;;;6.97;;
35444;SDS011;21562;49.476;6.086;2024-01-30T03:52:53;10.23;;;5.72;;
35444;SDS011;21562;49.476;6.086;2024-01-30T03:55:19;11.00;;;5.88;;
35444;SDS011;21562;49.476;6.086;2024-01-30T03:57:44;12.02;;;5.90;;
35444;SDS011;21562;49.476;6.086;2024-01-30T04:00:10;13.90;;;6.53;;
35444;SDS011;21562;49.476;6.086;2024-01-30T04:02:36;11.80;;;6.20;;
35444;SDS011;21562;49.476;6.086;2024-01-30T04:05:02;10.20;;;6.13;;
35444;SDS011;21562;49.476;6.086;2024-01-30T04:07:27;9.18;;;5.43;;
35444;SDS011;21562;49.476;6.086;2024-01-30T04:09:54;10.82;;;5.75;;
35444;SDS011;21562;49.476;6.086;2024-01-30T04:12:19;12.05;;;5.60;;
35444;SDS011;21562;49.476;6.086;2024-01-30T04:14:45;12.07;;;5.53;;
35444;SDS011;21562;49.476;6.086;2024-01-30T04:17:11;11.10;;;5.90;;
35444;SDS011;21562;49.476;6.086;2024-01-30T04:19:37;13.27;;;7.18;;
35444;SDS011;21562;49.476;6.086;2024-01-30T04:22:03;16.88;;;8.15;;
35444;SDS011;21562;49.476;6.086;2024-01-30T04:24:29;10.65;;;7.70;;
35444;SDS011;21562;49.476;6.086;2024-01-30T04:26:55;13.85;;;7.00;;
35444;SDS011;21562;49.476;6.086;2024-01-30T04:29:20;11.25;;;6.88;;
35444;SDS011;21562;49.476;6.086;2024-01-30T04:31:47;12.20;;;7.60;;
35444;SDS011;21562;49.476;6.086;2024-01-30T04:34:13;14.38;;;6.00;;
35444;SDS011;21562;49.476;6.086;2024-01-30T04:36:38;10.13;;;5.75;;
35444;SDS011;21562;49.476;6.086;2024-01-30T04:39:04;8.73;;;5.25;;
35444;SDS011;21562;49.476;6.086;2024-01-30T04:41:30;11.18;;;4.78;;
35444;SDS011;21562;49.476;6.086;2024-01-30T04:43:57;11.55;;;5.95;;
35444;SDS011;21562;49.476;6.086;2024-01-30T04:46:23;14.80;;;6.32;;
35444;SDS011;21562;49.476;6.086;2024-01-30T04:48:48;15.10;;;6.47;;
35444;SDS011;21562;49.476;6.086;2024-01-30T04:51:14;15.60;;;6.80;;
35444;SDS011;21562;49.476;6.086;2024-01-30T04:53:40;12.20;;;6.43;;
35444;SDS011;21562;49.476;6.086;2024-01-30T04:56:05;12.23;;;6.25;;
35444;SDS011;21562;49.476;6.086;2024-01-30T04:58:31;12.23;;;6.95;;
35444;SDS011;21562;49.476;6.086;2024-01-30T05:00:57;12.75;;;7.00;;
35444;SDS011;21562;49.476;6.086;2024-01-30T05:03:22;13.15;;;7.10;;
35444;SDS011;21562;49.476;6.086;2024-01-30T05:05:49;13.40;;;6.35;;
35444;SDS011;21562;49.476;6.086;2024-01-30T05:08:15;15.60;;;7.45;;
35444;SDS011;21562;49.476;6.086;2024-01-30T05:10:40;11.98;;;6.60;;
35444;SDS011;21562;49.476;6.086;2024-01-30T05:13:06;13.05;;;6.78;;
35444;SDS011;21562;49.476;6.086;2024-01-30T05:15:32;17.42;;;7.90;;
35444;SDS011;21562;49.476;6.086;2024-01-30T05:17:57;17.70;;;8.85;;
35444;SDS011;21562;49.476;6.086;2024-01-30T05:20:23;17.35;;;8.52;;
35444;SDS011;21562;49.476;6.086;2024-01-30T05:22:48;19.23;;;7.30;;
35444;SDS011;21562;49.476;6.086;2024-01-30T05:25:14;15.15;;;7.43;;
35444;SDS011;21562;49.476;6.086;2024-01-30T05:27:40;19.73;;;7.50;;
35444;SDS011;21562;49.476;6.086;2024-01-30T05:30:06;10.63;;;6.63;;
35444;SDS011;21562;49.476;6.086;2024-01-30T05:32:32;13.10;;;7.72;;
35444;SDS011;21562;49.476;6.086;2024-01-30T05:34:58;14.38;;;7.47;;
35444;SDS011;21562;49.476;6.086;2024-01-30T05:37:23;14.13;;;7.43;;
35444;SDS011;21562;49.476;6.086;2024-01-30T05:39:49;15.05;;;7.05;;
35444;SDS011;21562;49.476;6.086;2024-01-30T05:42:15;14.05;;;7.70;;
35444;SDS011;21562;49.476;6.086;2024-01-30T05:44:42;13.38;;;6.55;;
35444;SDS011;21562;49.476;6.086;2024-01-30T05:47:07;13.68;;;7.30;;
35444;SDS011;21562;49.476;6.086;2024-01-30T05:49:33;14.60;;;6.95;;
35444;SDS011;21562;49.476;6.086;2024-01-30T05:51:59;13.13;;;6.75;;
35444;SDS011;21562;49.476;6.086;2024-01-30T05:54:27;11.73;;;7.20;;
35444;SDS011;21562;49.476;6.086;2024-01-30T05:56:53;14.70;;;7.18;;
35444;SDS011;21562;49.476;6.086;2024-01-30T05:59:18;11.35;;;6.65;;
35444;SDS011;21562;49.476;6.086;2024-01-30T06:01:47;18.80;;;7.47;;
35444;SDS011;21562;49.476;6.086;2024-01-30T06:04:13;14.10;;;6.65;;
35444;SDS011;21562;49.476;6.086;2024-01-30T06:06:40;14.85;;;6.47;;
35444;SDS011;21562;49.476;6.086;2024-01-30T06:09:06;10.13;;;5.78;;
35444;SDS011;21562;49.476;6.086;2024-01-30T06:11:34;15.30;;;6.28;;
35444;SDS011;21562;49.476;6.086;2024-01-30T06:13:59;12.18;;;6.32;;
35444;SDS011;21562;49.476;6.086;2024-01-30T06:16:25;12.65;;;6.65;;
35444;SDS011;21562;49.476;6.086;2024-01-30T06:18:54;14.68;;;6.80;;
35444;SDS011;21562;49.476;6.086;2024-01-30T06:21:20;12.20;;;6.72;;
35444;SDS011;21562;49.476;6.086;2024-01-30T06:23:46;12.60;;;7.20;;
35444;SDS011;21562;49.476;6.086;2024-01-30T06:26:11;13.43;;;6.40;;
35444;SDS011;21562;49.476;6.086;2024-01-30T06:28:37;11.82;;;5.57;;
35444;SDS011;21562;49.476;6.086;2024-01-30T06:31:03;16.67;;;7.50;;
35444;SDS011;21562;49.476;6.086;2024-01-30T06:33:29;13.35;;;6.90;;
35444;SDS011;21562;49.476;6.086;2024-01-30T06:35:54;12.20;;;6.93;;
35444;SDS011;21562;49.476;6.086;2024-01-30T06:38:20;16.20;;;7.80;;
35444;SDS011;21562;49.476;6.086;2024-01-30T06:40:46;12.38;;;6.90;;
35444;SDS011;21562;49.476;6.086;2024-01-30T06:43:11;17.10;;;8.75;;
35444;SDS011;21562;49.476;6.086;2024-01-30T06:45:37;19.13;;;9.27;;
35444;SDS011;21562;49.476;6.086;2024-01-30T06:48:03;18.52;;;8.73;;
35444;SDS011;21562;49.476;6.086;2024-01-30T06:50:29;17.05;;;8.40;;
35444;SDS011;21562;49.476;6.086;2024-01-30T06:52:54;16.50;;;7.63;;
35444;SDS011;21562;49.476;6.086;2024-01-30T06:55:20;19.73;;;9.57;;
35444;SDS011;21562;49.476;6.086;2024-01-30T06:57:45;15.02;;;6.90;;
35444;SDS011;21562;49.476;6.086;2024-01-30T07:00:11;12.35;;;7.38;;
35444;SDS011;21562;49.476;6.086;2024-01-30T07:02:38;16.38;;;7.55;;
35444;SDS011;21562;49.476;6.086;2024-01-30T07:05:04;14.05;;;7.90;;
35444;SDS011;21562;49.476;6.086;2024-01-30T07:07:30;11.23;;;7.10;;
35444;SDS011;21562;49.476;6.086;2024-01-30T07:09:55;13.70;;;7.82;;
35444;SDS011;21562;49.476;6.086;2024-01-30T07:12:24;12.32;;;6.57;;
35444;SDS011;21562;49.476;6.086;2024-01-30T07:14:51;15.23;;;7.55;;
35444;SDS011;21562;49.476;6.086;2024-01-30T07:17:17;14.13;;;7.53;;
35444;SDS011;21562;49.476;6.086;2024-01-30T07:19:42;15.13;;;7.47;;
35444;SDS011;21562;49.476;6.086;2024-01-30T07:22:08;19.15;;;8.93;;
35444;SDS011;21562;49.476;6.086;2024-01-30T07:24:34;15.57;;;8.85;;
35444;SDS011;21562;49.476;6.086;2024-01-30T07:27:00;24.00;;;11.45;;
35444;SDS011;21562;49.476;6.086;2024-01-30T07:29:25;26.83;;;11.88;;
35444;SDS011;21562;49.476;6.086;2024-01-30T07:31:51;28.20;;;16.38;;
35444;SDS011;21562;49.476;6.086;2024-01-30T07:34:17;22.27;;;14.63;;
35444;SDS011;21562;49.476;6.086;2024-01-30T07:36:42;21.92;;;10.68;;
35444;SDS011;21562;49.476;6.086;2024-01-30T07:39:08;19.70;;;11.75;;
35444;SDS011;21562;49.476;6.086;2024-01-30T07:41:35;28.95;;;13.98;;
35444;SDS011;21562;49.476;6.086;2024-01-30T07:44:00;32.28;;;13.27;;
35444;SDS011;21562;49.476;6.086;2024-01-30T07:46:28;23.67;;;12.05;;
35444;SDS011;21562;49.476;6.086;2024-01-30T07:48:53;21.58;;;10.93;;
35444;SDS011;21562;49.476;6.086;2024-01-30T07:51:20;22.52;;;10.43;;
35444;SDS011;21562;49.476;6.086;2024-01-30T07:53:46;20.60;;;10.23;;
35444;SDS011;21562;49.476;6.086;2024-01-30T07:56:12;22.38;;;10.65;;
35444;SDS011;21562;49.476;6.086;2024-01-30T07:58:37;16.42;;;8.68;;
35444;SDS011;21562;49.476;6.086;2024-01-30T08:01:03;18.30;;;8.18;;
35444;SDS011;21562;49.476;6.086;2024-01-30T08:03:29;15.73;;;8.90;;
35444;SDS011;21562;49.476;6.086;2024-01-30T08:05:54;30.42;;;10.52;;
35444;SDS011;21562;49.476;6.086;2024-01-30T08:08:20;25.00;;;12.20;;
35444;SDS011;21562;49.476;6.086;2024-01-30T08:10:46;28.55;;;12.05;;
35444;SDS011;21562;49.476;6.086;2024-01-30T08:13:11;26.55;;;12.02;;
35444;SDS011;21562;49.476;6.086;2024-01-30T08:15:37;24.02;;;12.30;;
35444;SDS011;21562;49.476;6.086;2024-01-30T08:18:03;33.42;;;12.35;;
35444;SDS011;21562;49.476;6.086;2024-01-30T08:20:29;22.08;;;11.02;;
35444;SDS011;21562;49.476;6.086;2024-01-30T08:22:55;21.42;;;11.60;;
35444;SDS011;21562;49.476;6.086;2024-01-30T08:25:21;25.58;;;11.30;;
35444;SDS011;21562;49.476;6.086;2024-01-30T08:27:47;24.50;;;10.55;;
35444;SDS011;21562;49.476;6.086;2024-01-30T08:30:13;20.13;;;10.25;;
35444;SDS011;21562;49.476;6.086;2024-01-30T08:32:39;21.70;;;10.40;;
35444;SDS011;21562;49.476;6.086;2024-01-30T08:35:07;21.23;;;9.40;;
35444;SDS011;21562;49.476;6.086;2024-01-30T08:37:33;18.83;;;10.13;;
35444;SDS011;21562;49.476;6.086;2024-01-30T08:39:59;21.55;;;10.20;;
35444;SDS011;21562;49.476;6.086;2024-01-30T08:42:24;16.13;;;9.05;;
35444;SDS011;21562;49.476;6.086;2024-01-30T08:44:51;25.52;;;11.95;;
35444;SDS011;21562;49.476;6.086;2024-01-30T08:47:18;20.05;;;11.18;;
35444;SDS011;21562;49.476;6.086;2024-01-30T08:49:44;24.73;;;11.90;;
35444;SDS011;21562;49.476;6.086;2024-01-30T08:52:10;20.33;;;10.65;;
35444;SDS011;21562;49.476;6.086;2024-01-30T08:54:36;19.33;;;9.98;;
35444;SDS011;21562;49.476;6.086;2024-01-30T08:57:01;18.33;;;9.32;;
35444;SDS011;21562;49.476;6.086;2024-01-30T08:59:27;20.88;;;9.98;;
35444;SDS011;21562;49.476;6.086;2024-01-30T09:01:53;23.02;;;10.80;;
35444;SDS011;21562;49.476;6.086;2024-01-30T09:04:20;13.23;;;7.78;;
35444;SDS011;21562;49.476;6.086;2024-01-30T09:06:47;12.77;;;7.35;;
35444;SDS011;21562;49.476;6.086;2024-01-30T09:09:13;14.15;;;7.82;;
35444;SDS011;21562;49.476;6.086;2024-01-30T09:11:39;17.27;;;7.15;;
35444;SDS011;21562;49.476;6.086;2024-01-30T09:14:05;30.02;;;11.43;;
35444;SDS011;21562;49.476;6.086;2024-01-30T09:16:31;31.13;;;13.57;;
35444;SDS011;21562;49.476;6.086;2024-01-30T09:18:57;27.33;;;14.38;;
35444;SDS011;21562;49.476;6.086;2024-01-30T09:21:23;26.25;;;12.75;;
35444;SDS011;21562;49.476;6.086;2024-01-30T09:23:48;28.40;;;12.65;;
35444;SDS011;21562;49.476;6.086;2024-01-30T09:26:14;20.70;;;10.65;;
35444;SDS011;21562;49.476;6.086;2024-01-30T09:28:40;15.35;;;7.80;;
35444;SDS011;21562;49.476;6.086;2024-01-30T09:31:10;15.77;;;7.55;;
35444;SDS011;21562;49.476;6.086;2024-01-30T09:33:37;17.83;;;7.25;;
35444;SDS011;21562;49.476;6.086;2024-01-30T09:36:04;15.25;;;6.75;;
35444;SDS011;21562;49.476;6.086;2024-01-30T09:38:30;17.10;;;7.78;;
35444;SDS011;21562;49.476;6.086;2024-01-30T09:40:56;12.35;;;6.88;;
35444;SDS011;21562;49.476;6.086;2024-01-30T09:43:29;17.33;;;6.88;;
35444;SDS011;21562;49.476;6.086;2024-01-30T09:45:59;16.67;;;6.95;;
35444;SDS011;21562;49.476;6.086;2024-01-30T09:48:27;11.30;;;6.50;;
35444;SDS011;21562;49.476;6.086;2024-01-30T09:50:55;13.38;;;7.13;;
35444;SDS011;21562;49.476;6.086;2024-01-30T09:53:22;12.07;;;6.85;;
35444;SDS011;21562;49.476;6.086;2024-01-30T09:55:50;14.52;;;7.50;;
35444;SDS011;21562;49.476;6.086;2024-01-30T09:58:16;12.50;;;6.45;;
35444;SDS011;21562;49.476;6.086;2024-01-30T10:00:42;19.60;;;7.97;;
35444;SDS011;21562;49.476;6.086;2024-01-30T10:03:08;17.45;;;6.60;;
35444;SDS011;21562;49.476;6.086;2024-01-30T10:05:35;16.77;;;6.93;;
35444;SDS011;21562;49.476;6.086;2024-01-30T10:08:05;15.73;;;6.40;;
35444;SDS011;21562;49.476;6.086;2024-01-30T10:10:33;13.20;;;6.80;;
35444;SDS011;21562;49.476;6.086;2024-01-30T10:13:00;14.38;;;6.38;;
35444;SDS011;21562;49.476;6.086;2024-01-30T10:15:26;11.88;;;6.07;;
35444;SDS011;21562;49.476;6.086;2024-01-30T10:17:53;13.60;;;7.00;;
35444;SDS011;21562;49.476;6.086;2024-01-30T10:20:19;10.73;;;6.00;;
35444;SDS011;21562;49.476;6.086;2024-01-30T10:22:47;12.38;;;6.30;;
35444;SDS011;21562;49.476;6.086;2024-01-30T10:25:14;17.60;;;6.28;;
35444;SDS011;21562;49.476;6.086;2024-01-30T10:27:40;12.60;;;6.57;;
35444;SDS011;21562;49.476;6.086;2024-01-30T10:30:06;10.60;;;5.63;;
35444;SDS011;21562;49.476;6.086;2024-01-30T10:32:32;9.55;;;6.05;;
35444;SDS011;21562;49.476;6.086;2024-01-30T10:34:58;12.57;;;6.43;;
35444;SDS011;21562;49.476;6.086;2024-01-30T10:37:25;11.25;;;6.40;;
35444;SDS011;21562;49.476;6.086;2024-01-30T10:39:51;12.57;;;6.43;;
35444;SDS011;21562;49.476;6.086;2024-01-30T10:42:18;12.98;;;6.40;;
35444;SDS011;21562;49.476;6.086;2024-01-30T10:44:51;16.33;;;6.00;;
35444;SDS011;21562;49.476;6.086;2024-01-30T10:47:35;17.13;;;6.35;;
35444;SDS011;21562;49.476;6.086;2024-01-30T10:50:04;20.23;;;6.88;;
35444;SDS011;21562;49.476;6.086;2024-01-30T10:52:30;15.00;;;6.93;;
35444;SDS011;21562;49.476;6.086;2024-01-30T10:54:57;13.13;;;6.25;;
35444;SDS011;21562;49.476;6.086;2024-01-30T10:57:24;15.13;;;6.90;;
35444;SDS011;21562;49.476;6.086;2024-01-30T11:00:01;10.13;;;6.88;;
35444;SDS011;21562;49.476;6.086;2024-01-30T11:02:35;15.38;;;7.25;;
35444;SDS011;21562;49.476;6.086;2024-01-30T11:05:05;12.85;;;6.35;;
35444;SDS011;21562;49.476;6.086;2024-01-30T11:07:31;13.60;;;6.57;;
35444;SDS011;21562;49.476;6.086;2024-01-30T11:12:25;11.10;;;6.05;;
35444;SDS011;21562;49.476;6.086;2024-01-30T11:20:21;10.40;;;6.18;;
35444;SDS011;21562;49.476;6.086;2024-01-30T11:22:53;14.50;;;6.85;;
35444;SDS011;21562;49.476;6.086;2024-01-30T11:25:21;9.57;;;5.72;;
35444;SDS011;21562;49.476;6.086;2024-01-30T11:27:49;12.70;;;5.82;;
35444;SDS011;21562;49.476;6.086;2024-01-30T11:32:57;12.60;;;6.30;;
35444;SDS011;21562;49.476;6.086;2024-01-30T11:35:33;15.55;;;6.80;;
35444;SDS011;21562;49.476;6.086;2024-01-30T11:38:00;11.45;;;6.38;;
35444;SDS011;21562;49.476;6.086;2024-01-30T11:40:30;14.82;;;6.85;;
35444;SDS011;21562;49.476;6.086;2024-01-30T11:42:58;11.75;;;7.03;;
35444;SDS011;21562;49.476;6.086;2024-01-30T11:45:24;10.88;;;5.60;;
35444;SDS011;21562;49.476;6.086;2024-01-30T11:47:51;12.68;;;6.03;;
35444;SDS011;21562;49.476;6.086;2024-01-30T11:50:17;14.60;;;5.90;;
35444;SDS011;21562;49.476;6.086;2024-01-30T11:52:43;14.85;;;6.32;;
35444;SDS011;21562;49.476;6.086;2024-01-30T11:55:09;10.40;;;6.00;;
35444;SDS011;21562;49.476;6.086;2024-01-30T11:57:35;14.10;;;6.20;;
35444;SDS011;21562;49.476;6.086;2024-01-30T12:00:02;12.88;;;5.85;;
35444;SDS011;21562;49.476;6.086;2024-01-30T12:02:38;18.10;;;11.50;;
35444;SDS011;21562;49.476;6.086;2024-01-30T12:05:04;10.20;;;7.03;;
35444;SDS011;21562;49.476;6.086;2024-01-30T12:07:30;16.20;;;6.90;;
35444;SDS011;21562;49.476;6.086;2024-01-30T12:09:57;15.13;;;6.18;;
35444;SDS011;21562;49.476;6.086;2024-01-30T12:12:23;12.55;;;6.15;;
35444;SDS011;21562;49.476;6.086;2024-01-30T12:14:50;20.10;;;8.52;;
35444;SDS011;21562;49.476;6.086;2024-01-30T12:17:49;12.65;;;6.82;;
35444;SDS011;21562;49.476;6.086;2024-01-30T12:20:09;14.40;;;6.65;;
35444;SDS011;21562;49.476;6.086;2024-01-30T12:22:37;15.80;;;6.90;;
35444;SDS011;21562;49.476;6.086;2024-01-30T12:25:08;15.70;;;8.00;;
35444;SDS011;21562;49.476;6.086;2024-01-30T12:27:35;12.98;;;6.88;;
35444;SDS011;21562;49.476;6.086;2024-01-30T12:30:04;9.82;;;6.28;;
35444;SDS011;21562;49.476;6.086;2024-01-30T12:32:37;9.48;;;5.88;;
35444;SDS011;21562;49.476;6.086;2024-01-30T12:35:12;20.05;;;9.73;;
35444;SDS011;21562;49.476;6.086;2024-01-30T12:37:43;12.82;;;6.85;;
35444;SDS011;21562;49.476;6.086;2024-01-30T12:40:10;11.85;;;6.97;;
35444;SDS011;21562;49.476;6.086;2024-01-30T12:42:38;16.67;;;8.38;;
35444;SDS011;21562;49.476;6.086;2024-01-30T12:45:04;17.00;;;9.05;;
35444;SDS011;21562;49.476;6.086;2024-01-30T12:47:31;14.90;;;6.90;;
35444;SDS011;21562;49.476;6.086;2024-01-30T12:49:57;24.83;;;10.57;;
35444;SDS011;21562;49.476;6.086;2024-01-30T12:52:23;11.85;;;6.60;;
35444;SDS011;21562;49.476;6.086;2024-01-30T12:54:49;11.73;;;6.82;;
35444;SDS011;21562;49.476;6.086;2024-01-30T12:57:15;21.48;;;9.70;;
35444;SDS011;21562;49.476;6.086;2024-01-30T12:59:42;14.75;;;7.00;;
35444;SDS011;21562;49.476;6.086;2024-01-30T13:02:08;14.32;;;6.78;;
35444;SDS011;21562;49.476;6.086;2024-01-30T13:04:34;13.25;;;5.80;;
35444;SDS011;21562;49.476;6.086;2024-01-30T13:07:00;23.20;;;8.75;;
35444;SDS011;21562;49.476;6.086;2024-01-30T13:09:26;15.45;;;6.00;;
35444;SDS011;21562;49.476;6.086;2024-01-30T13:11:52;15.55;;;8.27;;
35444;SDS011;21562;49.476;6.086;2024-01-30T13:14:18;13.40;;;6.22;;
35444;SDS011;21562;49.476;6.086;2024-01-30T13:16:44;16.35;;;7.57;;
35444;SDS011;21562;49.476;6.086;2024-01-30T13:19:10;16.55;;;6.53;;
35444;SDS011;21562;49.476;6.086;2024-01-30T13:21:36;13.43;;;8.00;;
35444;SDS011;21562;49.476;6.086;2024-01-30T13:24:02;16.00;;;6.40;;
35444;SDS011;21562;49.476;6.086;2024-01-30T13:26:28;14.23;;;7.10;;
35444;SDS011;21562;49.476;6.086;2024-01-30T13:28:55;13.02;;;6.57;;
35444;SDS011;21562;49.476;6.086;2024-01-30T13:31:21;12.20;;;6.88;;
35444;SDS011;21562;49.476;6.086;2024-01-30T13:33:47;11.32;;;6.60;;
35444;SDS011;21562;49.476;6.086;2024-01-30T13:36:14;14.43;;;6.35;;
35444;SDS011;21562;49.476;6.086;2024-01-30T13:38:39;13.95;;;6.72;;
35444;SDS011;21562;49.476;6.086;2024-01-30T13:41:05;17.10;;;6.70;;
35444;SDS011;21562;49.476;6.086;2024-01-30T13:43:31;13.50;;;7.55;;
35444;SDS011;21562;49.476;6.086;2024-01-30T13:45:57;11.70;;;6.28;;
35444;SDS011;21562;49.476;6.086;2024-01-30T13:48:23;11.18;;;7.28;;
35444;SDS011;21562;49.476;6.086;2024-01-30T13:50:49;12.55;;;6.68;;
35444;SDS011;21562;49.476;6.086;2024-01-30T13:53:15;16.85;;;7.05;;
35444;SDS011;21562;49.476;6.086;2024-01-30T13:55:40;21.73;;;7.20;;
35444;SDS011;21562;49.476;6.086;2024-01-30T13:58:06;12.32;;;7.13;;
35444;SDS011;21562;49.476;6.086;2024-01-30T14:00:32;15.73;;;7.00;;
35444;SDS011;21562;49.476;6.086;2024-01-30T14:02:59;14.50;;;7.30;;
35444;SDS011;21562;49.476;6.086;2024-01-30T14:05:24;14.63;;;7.68;;
35444;SDS011;21562;49.476;6.086;2024-01-30T14:07:51;20.13;;;7.82;;
35444;SDS011;21562;49.476;6.086;2024-01-30T14:10:17;17.13;;;7.50;;
35444;SDS011;21562;49.476;6.086;2024-01-30T14:12:43;20.98;;;8.80;;
35444;SDS011;21562;49.476;6.086;2024-01-30T14:15:09;16.85;;;8.50;;
35444;SDS011;21562;49.476;6.086;2024-01-30T14:17:36;16.63;;;7.55;;
35444;SDS011;21562;49.476;6.086;2024-01-30T14:20:05;17.48;;;7.45;;
35444;SDS011;21562;49.476;6.086;2024-01-30T14:22:32;13.55;;;6.72;;
35444;SDS011;21562;49.476;6.086;2024-01-30T14:24:58;14.82;;;6.93;;
35444;SDS011;21562;49.476;6.086;2024-01-30T14:27:24;19.25;;;7.60;;
35444;SDS011;21562;49.476;6.086;2024-01-30T14:29:50;22.20;;;7.72;;
35444;SDS011;21562;49.476;6.086;2024-01-30T14:32:15;12.02;;;7.45;;
35444;SDS011;21562;49.476;6.086;2024-01-30T14:34:41;20.90;;;7.32;;
35444;SDS011;21562;49.476;6.086;2024-01-30T14:37:07;13.25;;;7.28;;
35444;SDS011;21562;49.476;6.086;2024-01-30T14:39:32;19.23;;;7.75;;